Danmark — OXDK — position and weather

sailwx.info

Track history (hours):
 
Tides and Currents Weather Stations Pressure Air Temp Water Temp Dewpoint Dewpoint Depression Visibility Wind Speed Wind Dir Waves Ship Positions

Danmark (Denmark)

Last reported at 2017-Jul-12 08:48 UTC. Time now 2017-Aug-20 11:30 UTC.
Position N 57°26' E 010°32'.
Warning: this ship's position is 39 days out of date.

Length 60 m; beam 10 m; draft 5 m.

Type: Sailing vessel. MMSI: 219500000.

Date/timePositionNaut miles runAvg speedWind from/ knotsBaromVisibWave heightAir tempDewpointWater temp
2017-Jul-12 08:48N 57°26' E 010°32'0 0.0
2017-Jul-12 08:30N 57°26' E 010°32'0 0.0
2017-Jul-12 08:00N 57°26' E 010°32'0 0.0
2017-Jul-12 07:30N 57°26' E 010°32'0 0.1
2017-Jul-12 07:00N 57°26' E 010°32'1 1.9
2017-Jul-12 06:29N 57°25' E 010°34'1 2.5
2017-Jul-12 06:00N 57°25' E 010°36'2 3.4
2017-Jul-12 05:30N 57°26' E 010°37'2 3.2
2017-Jul-12 04:59N 57°28' E 010°39'2 4.1
2017-Jul-12 04:30N 57°30' E 010°40'2 3.1
2017-Jul-12 04:00N 57°31' E 010°41'2 4.0
2017-Jul-12 03:30N 57°33' E 010°42'2 4.0
2017-Jul-12 02:59N 57°35' E 010°43'2 4.4
2017-Jul-12 02:30N 57°37' E 010°44'2 4.1
2017-Jul-12 01:58N 57°39' E 010°45'2 4.0
2017-Jul-12 01:30N 57°41' E 010°46'2 4.5
2017-Jul-12 01:00N 57°43' E 010°45'3 4.9
2017-Jul-12 00:27N 57°46' E 010°44'2 5.0
2017-Jul-12 00:00N 57°47' E 010°40'3 6.6
2017-Jul-11 23:30N 57°47' E 010°34'3 6.3
2017-Jul-11 23:00N 57°45' E 010°29'3 6.1
2017-Jul-11 22:30N 57°44' E 010°24'3 5.9
2017-Jul-11 21:57N 57°43' E 010°18'127 6.0
2017-Jul-11 00:52N 56°04' E 007°52'2 6.4
2017-Jul-11 00:31N 56°02' E 007°52'3 6.5
2017-Jul-11 00:01N 55°59' E 007°52'3 6.5
2017-Jul-10 23:31N 55°55' E 007°52'3 6.4
2017-Jul-10 23:00N 55°52' E 007°51'3 6.1
2017-Jul-10 22:30N 55°49' E 007°51'3 6.1
2017-Jul-10 22:00N 55°46' E 007°50'3 5.9
2017-Jul-10 21:30N 55°43' E 007°50'3 5.7
2017-Jul-10 21:00N 55°40' E 007°50'3 5.9
2017-Jul-10 20:30N 55°37' E 007°49'3 5.8
2017-Jul-10 20:00N 55°34' E 007°49'3 5.4
2017-Jul-10 19:30N 55°32' E 007°51'3 6.2
2017-Jul-10 19:00N 55°31' E 007°56'3 6.1
2017-Jul-10 18:30N 55°30' E 008°02'3 5.9
2017-Jul-10 18:00N 55°28' E 008°06'3 5.7
2017-Jul-10 17:30N 55°27' E 008°10'3 5.4
2017-Jul-10 17:00N 55°26' E 008°14'5 9.3
2017-Jul-10 16:30N 55°29' E 008°21'3 4.1
2017-Jul-10 15:54N 55°29' E 008°25'0 0.0
2017-Jul-10 15:30N 55°29' E 008°25'0 0.0
2017-Jul-10 15:00N 55°29' E 008°25'0 0.0
2017-Jul-10 14:30N 55°29' E 008°25'0 0.0
2017-Jul-10 14:00N 55°29' E 008°25'0 0.0
2017-Jul-10 13:30N 55°29' E 008°25'0 0.0
2017-Jul-10 13:00N 55°29' E 008°25'0 0.0
2017-Jul-10 12:30N 55°29' E 008°25'0 0.0
2017-Jul-10 12:00N 55°29' E 008°25'0 0.0
2017-Jul-10 11:30N 55°29' E 008°25'0 0.0
2017-Jul-10 11:00N 55°29' E 008°25'0 0.0
2017-Jul-10 10:24N 55°29' E 008°25'0 0.0
2017-Jul-10 10:00N 55°29' E 008°25'0 0.0
2017-Jul-10 09:30N 55°29' E 008°25'0 0.0
2017-Jul-10 09:00N 55°29' E 008°25'0 0.0
2017-Jul-10 08:30N 55°29' E 008°25'0 0.0
2017-Jul-10 07:54N 55°29' E 008°25'0 0.0
2017-Jul-10 07:30N 55°29' E 008°25'0 0.0
2017-Jul-10 06:36N 55°29' E 008°25'0 0.1
2017-Jul-10 06:30N 55°29' E 008°25'0 0.0
2017-Jul-10 05:54N 55°29' E 008°25'0 0.0
2017-Jul-10 05:30N 55°29' E 008°25'0 0.0
2017-Jul-10 05:00N 55°29' E 008°25'0 0.0
2017-Jul-10 04:30N 55°29' E 008°25'0 0.0
2017-Jul-10 03:54N 55°29' E 008°25'0 0.0
2017-Jul-10 03:30N 55°29' E 008°25'0 0.0
2017-Jul-10 03:00N 55°29' E 008°25'0 0.0
2017-Jul-10 02:30N 55°29' E 008°25'0 0.0
2017-Jul-10 01:50N 55°29' E 008°25'0 0.0
2017-Jul-10 01:26N 55°29' E 008°25'0 0.0
2017-Jul-10 00:56N 55°29' E 008°25'0 0.0
2017-Jul-10 00:26N 55°29' E 008°25'0 0.0
2017-Jul-09 23:50N 55°29' E 008°25'0 0.0
2017-Jul-09 23:26N 55°29' E 008°25'0 0.0
2017-Jul-09 22:56N 55°29' E 008°25'0 0.0
2017-Jul-09 22:26N 55°29' E 008°25'0 0.0
2017-Jul-09 21:56N 55°29' E 008°25'0 0.0
2017-Jul-09 21:26N 55°29' E 008°25'0 0.0
2017-Jul-09 20:56N 55°29' E 008°25'0 0.0
2017-Jul-09 20:26N 55°29' E 008°25'0 0.0
2017-Jul-09 19:56N 55°29' E 008°25'0 0.0
2017-Jul-09 19:26N 55°29' E 008°25'0 0.0
2017-Jul-09 18:56N 55°29' E 008°25'0 0.0
2017-Jul-09 18:26N 55°29' E 008°25'0 0.0
2017-Jul-09 17:50N 55°29' E 008°25'0 0.0
2017-Jul-09 17:26N 55°29' E 008°25'0 0.0
2017-Jul-09 16:56N 55°29' E 008°25'0 0.0
2017-Jul-09 16:26N 55°29' E 008°25'0 0.0
2017-Jul-09 15:56N 55°29' E 008°25'0 0.0
2017-Jul-09 15:26N 55°29' E 008°25'0 0.0
2017-Jul-09 14:56N 55°29' E 008°25'0 0.0
2017-Jul-09 14:26N 55°29' E 008°25'0 0.0
2017-Jul-09 13:50N 55°29' E 008°25'0 0.0
2017-Jul-09 13:20N 55°29' E 008°25'0 0.0
2017-Jul-09 12:56N 55°29' E 008°25'0 0.0
2017-Jul-09 12:26N 55°29' E 008°25'0 0.0
2017-Jul-09 11:50N 55°29' E 008°25'0 0.0
2017-Jul-09 11:26N 55°29' E 008°25'0 0.0
2017-Jul-09 10:56N 55°29' E 008°25'0 0.0
2017-Jul-09 10:26N 55°29' E 008°25'0 0.0
2017-Jul-09 09:50N 55°29' E 008°25'0 0.0
2017-Jul-09 09:26N 55°29' E 008°25'0 0.0
2017-Jul-09 08:56N 55°29' E 008°25'0 0.0
2017-Jul-09 08:20N 55°29' E 008°25'0 0.0
2017-Jul-09 07:44N 55°29' E 008°25'0 0.0
2017-Jul-09 07:26N 55°29' E 008°25'0 0.0
2017-Jul-09 06:56N 55°29' E 008°25'0 0.0
2017-Jul-09 06:26N 55°29' E 008°25'0 0.0
2017-Jul-09 05:56N 55°29' E 008°25'0 0.0
2017-Jul-09 05:26N 55°29' E 008°25'0 0.0
2017-Jul-09 04:56N 55°29' E 008°25'0 0.0
2017-Jul-09 04:26N 55°29' E 008°25'0 0.0
2017-Jul-09 03:56N 55°29' E 008°25'0 0.0
2017-Jul-09 03:26N 55°29' E 008°25'0 0.0
2017-Jul-09 02:56N 55°29' E 008°25'0 0.0
2017-Jul-09 02:26N 55°29' E 008°25'0 0.0
2017-Jul-09 01:44N 55°29' E 008°25'0 0.0
2017-Jul-09 01:20N 55°29' E 008°25'0 0.0
2017-Jul-09 00:56N 55°29' E 008°25'0 0.0
2017-Jul-09 00:26N 55°29' E 008°25'0 0.0
2017-Jul-08 23:56N 55°29' E 008°25'0 0.0
2017-Jul-08 23:26N 55°29' E 008°25'0 0.0
2017-Jul-08 22:56N 55°29' E 008°25'0 0.0
2017-Jul-08 22:26N 55°29' E 008°25'0 0.0
2017-Jul-08 21:56N 55°29' E 008°25'0 0.0
2017-Jul-08 21:26N 55°29' E 008°25'0 0.0
2017-Jul-08 20:56N 55°29' E 008°25'0 0.0
2017-Jul-08 20:26N 55°29' E 008°25'0 0.0
2017-Jul-08 19:56N 55°29' E 008°25'0 0.0
2017-Jul-08 19:26N 55°29' E 008°25'0 0.0
2017-Jul-08 18:56N 55°29' E 008°25'0 0.0
2017-Jul-08 18:26N 55°29' E 008°25'0 0.0
2017-Jul-08 17:56N 55°29' E 008°25'0 0.0
2017-Jul-08 17:26N 55°29' E 008°25'0 0.0
2017-Jul-08 16:56N 55°29' E 008°25'0 0.0
2017-Jul-08 16:26N 55°29' E 008°25'0 0.0
2017-Jul-08 15:56N 55°29' E 008°25'0 0.0
2017-Jul-08 15:20N 55°29' E 008°25'0 0.0
2017-Jul-08 14:56N 55°29' E 008°25'0 0.0
2017-Jul-08 13:56N 55°29' E 008°25'0 0.0
2017-Jul-08 13:20N 55°29' E 008°25'0 0.0
2017-Jul-08 12:56N 55°29' E 008°25'0 0.0
2017-Jul-08 12:20N 55°29' E 008°25'0 0.0
2017-Jul-08 11:56N 55°29' E 008°25'0 0.0
2017-Jul-08 11:26N 55°29' E 008°25'0 0.0
2017-Jul-08 10:56N 55°29' E 008°25'0 0.0
2017-Jul-08 10:26N 55°29' E 008°25'0 0.0
2017-Jul-08 09:50N 55°29' E 008°25'0 0.0
2017-Jul-08 09:26N 55°29' E 008°25'0 0.0
2017-Jul-08 08:50N 55°29' E 008°25'0 0.0
2017-Jul-08 08:26N 55°29' E 008°25'0 0.0
2017-Jul-08 07:50N 55°29' E 008°25'0 0.0
2017-Jul-08 07:26N 55°29' E 008°25'0 0.0
2017-Jul-08 06:50N 55°29' E 008°25'0 0.0
2017-Jul-08 06:26N 55°29' E 008°25'0 0.0
2017-Jul-08 05:56N 55°29' E 008°25'0 0.0
2017-Jul-08 05:20N 55°29' E 008°25'0 0.0
2017-Jul-08 04:56N 55°29' E 008°25'0 0.0
2017-Jul-08 04:26N 55°29' E 008°25'0 0.0
2017-Jul-08 03:56N 55°29' E 008°25'0 0.0
2017-Jul-08 03:26N 55°29' E 008°25'0 0.0
2017-Jul-08 02:56N 55°29' E 008°25'0 0.0
2017-Jul-08 02:26N 55°29' E 008°25'0 0.0
2017-Jul-08 01:56N 55°29' E 008°25'0 0.0
2017-Jul-08 01:20N 55°29' E 008°25'0 0.0
2017-Jul-08 00:50N 55°29' E 008°25'0 0.0
2017-Jul-08 00:26N 55°29' E 008°25'0 0.0
2017-Jul-07 23:56N 55°29' E 008°25'0 0.0
2017-Jul-07 23:26N 55°29' E 008°25'0 0.0
2017-Jul-07 22:56N 55°29' E 008°25'0 0.0
2017-Jul-07 22:26N 55°29' E 008°25'0 0.0
2017-Jul-07 21:56N 55°29' E 008°25'0 0.0
2017-Jul-07 21:26N 55°29' E 008°25'0 0.0
2017-Jul-07 20:56N 55°29' E 008°25'0 0.0
2017-Jul-07 20:26N 55°29' E 008°25'0 0.0
2017-Jul-07 19:56N 55°29' E 008°25'0 0.0
2017-Jul-07 19:26N 55°29' E 008°25'0 0.0
2017-Jul-07 18:44N 55°29' E 008°25'0 0.0
2017-Jul-07 18:26N 55°29' E 008°25'0 0.0
2017-Jul-07 17:56N 55°29' E 008°25'0 0.0
2017-Jul-07 17:26N 55°29' E 008°25'0 0.0
2017-Jul-07 16:56N 55°29' E 008°25'0 0.0
2017-Jul-07 16:26N 55°29' E 008°25'0 0.0
2017-Jul-07 15:56N 55°29' E 008°25'0 0.0
2017-Jul-07 15:26N 55°29' E 008°25'0 0.0
2017-Jul-07 14:56N 55°29' E 008°25'0 0.0
2017-Jul-07 13:56N 55°29' E 008°25'0 0.0
2017-Jul-07 13:26N 55°29' E 008°25'0 0.0
2017-Jul-07 12:56N 55°29' E 008°25'0 0.0
2017-Jul-07 12:26N 55°29' E 008°25'0 0.0
2017-Jul-07 11:56N 55°29' E 008°25'0 0.0
2017-Jul-07 11:26N 55°29' E 008°25'0 0.0
2017-Jul-07 10:50N 55°29' E 008°25'0 0.0
2017-Jul-07 10:27N 55°29' E 008°25'0 0.0
2017-Jul-07 09:50N 55°29' E 008°25'0 0.0
2017-Jul-07 09:17N 55°29' E 008°25'0 0.0
2017-Jul-07 08:59N 55°29' E 008°25'0 0.0
2017-Jul-07 08:29N 55°29' E 008°25'0 0.0
2017-Jul-07 07:59N 55°29' E 008°25'0 0.0
2017-Jul-07 07:29N 55°29' E 008°25'0 0.0
2017-Jul-07 06:56N 55°29' E 008°25'0 0.0
2017-Jul-07 06:26N 55°29' E 008°25'0 0.0
2017-Jul-07 05:59N 55°29' E 008°25'0 0.0
2017-Jul-07 05:26N 55°29' E 008°25'0 0.0
2017-Jul-07 04:56N 55°29' E 008°25'0 0.0
2017-Jul-07 04:17N 55°29' E 008°25'0 0.0
2017-Jul-07 03:59N 55°29' E 008°25'0 0.0
2017-Jul-07 03:23N 55°29' E 008°25'0 0.0
2017-Jul-07 02:56N 55°29' E 008°25'0 0.0
2017-Jul-07 02:29N 55°29' E 008°25'0 0.0
2017-Jul-07 01:59N 55°29' E 008°25'0 0.0
2017-Jul-07 01:29N 55°29' E 008°25'0 0.0
2017-Jul-07 00:59N 55°29' E 008°25'0 0.0
2017-Jul-07 00:29N 55°29' E 008°25'0 0.0
2017-Jul-06 23:59N 55°29' E 008°25'0 0.0
2017-Jul-06 23:17N 55°29' E 008°25'0 0.0
2017-Jul-06 23:14N 55°29' E 008°25'0 0.0
2017-Jul-05 08:28N 55°29' E 008°25'0 0.0
2017-Jul-05 07:56N 55°29' E 008°25'0 0.0
2017-Jul-05 07:29N 55°29' E 008°25'0 0.0
2017-Jul-05 06:59N 55°29' E 008°25'0 0.0
2017-Jul-05 06:20N 55°29' E 008°25'0 0.0
2017-Jul-05 05:59N 55°29' E 008°25'0 0.0
2017-Jul-05 05:29N 55°29' E 008°25'0 0.0
2017-Jul-05 04:59N 55°29' E 008°25'0 0.0
2017-Jul-05 04:29N 55°29' E 008°25'0 0.0
2017-Jul-05 03:59N 55°29' E 008°25'0 0.0
2017-Jul-05 03:29N 55°29' E 008°25'0 0.0
2017-Jul-05 02:56N 55°29' E 008°25'0 0.0
2017-Jul-05 02:29N 55°29' E 008°25'0 0.0
2017-Jul-05 01:59N 55°29' E 008°25'0 0.0
2017-Jul-05 01:29N 55°29' E 008°25'0 0.0
2017-Jul-05 00:59N 55°29' E 008°25'0 0.0
2017-Jul-05 00:29N 55°29' E 008°25'0 0.0
2017-Jul-04 23:59N 55°29' E 008°25'0 0.0
2017-Jul-04 23:29N 55°29' E 008°25'0 0.0
2017-Jul-04 22:44N 55°29' E 008°25'0 0.0
2017-Jul-04 22:26N 55°29' E 008°25'0 0.0
2017-Jul-04 21:50N 55°29' E 008°25'0 0.0
2017-Jul-04 21:29N 55°29' E 008°25'0 0.0
2017-Jul-04 20:59N 55°29' E 008°25'0 0.0
2017-Jul-04 20:23N 55°29' E 008°25'0 0.0
2017-Jul-04 19:59N 55°29' E 008°25'0 0.0
2017-Jul-04 19:26N 55°29' E 008°25'0 0.0
2017-Jul-04 18:59N 55°29' E 008°25'0 0.0
2017-Jul-04 18:29N 55°29' E 008°25'0 0.0
2017-Jul-04 17:53N 55°29' E 008°25'0 0.0
2017-Jul-04 17:29N 55°29' E 008°25'0 0.0
2017-Jul-04 16:59N 55°29' E 008°25'0 0.0
2017-Jul-04 16:29N 55°29' E 008°25'0 0.0
2017-Jul-04 15:59N 55°29' E 008°25'0 0.0
2017-Jul-04 15:29N 55°29' E 008°25'0 0.0
2017-Jul-04 14:53N 55°29' E 008°25'0 0.0
2017-Jul-04 13:59N 55°29' E 008°25'0 0.0
2017-Jul-04 13:29N 55°29' E 008°25'0 0.0
2017-Jul-04 12:59N 55°29' E 008°25'0 0.0
2017-Jul-04 12:23N 55°29' E 008°25'0 0.0
2017-Jul-04 11:59N 55°29' E 008°25'0 0.0
2017-Jul-04 11:26N 55°29' E 008°25'0 0.0
2017-Jul-04 10:53N 55°29' E 008°25'0 0.0
2017-Jul-04 10:29N 55°29' E 008°25'0 0.0
2017-Jul-04 09:59N 55°29' E 008°25'0 0.0
2017-Jul-04 09:29N 55°29' E 008°25'0 0.0
2017-Jul-04 08:56N 55°29' E 008°25'0 0.0
2017-Jul-04 08:29N 55°29' E 008°25'0 0.0
2017-Jul-04 07:56N 55°29' E 008°25'0 0.0
2017-Jul-04 07:29N 55°29' E 008°25'0 0.0
2017-Jul-04 06:53N 55°29' E 008°25'0 0.0
2017-Jul-04 06:29N 55°29' E 008°25'0 0.0
2017-Jul-04 05:56N 55°29' E 008°25'0 0.0
2017-Jul-04 05:23N 55°29' E 008°25'0 0.0
2017-Jul-04 04:56N 55°29' E 008°25'0 0.0
2017-Jul-04 04:29N 55°29' E 008°25'0 0.0
2017-Jul-04 03:56N 55°29' E 008°25'0 0.0
2017-Jul-04 03:29N 55°29' E 008°25'0 0.0
2017-Jul-04 02:53N 55°29' E 008°25'0 0.0
2017-Jul-04 02:26N 55°29' E 008°25'0 0.0
2017-Jul-04 01:59N 55°29' E 008°25'0 0.1
2017-Jul-04 01:29N 55°29' E 008°25'0 0.0
2017-Jul-04 00:53N 55°29' E 008°25'0 0.0
2017-Jul-04 00:29N 55°29' E 008°25'0 0.0
2017-Jul-03 23:59N 55°29' E 008°25'0 0.0
2017-Jul-03 23:29N 55°29' E 008°25'0 0.0
2017-Jul-03 22:56N 55°29' E 008°25'0 0.0
2017-Jul-03 22:29N 55°29' E 008°25'0 0.0
2017-Jul-03 21:59N 55°29' E 008°25'0 0.0
2017-Jul-03 21:29N 55°29' E 008°25'0 0.0
2017-Jul-03 20:59N 55°29' E 008°25'0 0.0
2017-Jul-03 20:26N 55°29' E 008°25'0 0.0
2017-Jul-03 19:59N 55°29' E 008°25'0 0.0
2017-Jul-03 19:23N 55°29' E 008°25'0 0.0
2017-Jul-03 18:50N 55°29' E 008°25'0 0.0
2017-Jul-03 18:29N 55°29' E 008°25'0 0.0
2017-Jul-03 17:56N 55°29' E 008°25'0 0.0
2017-Jul-03 17:26N 55°29' E 008°25'0 0.0
2017-Jul-03 16:59N 55°29' E 008°25'0 0.0
2017-Jul-03 16:29N 55°29' E 008°25'0 0.0
2017-Jul-03 15:59N 55°29' E 008°25'0 0.0
2017-Jul-03 15:26N 55°29' E 008°25'0 0.0
2017-Jul-03 14:53N 55°29' E 008°25'0 0.0
2017-Jul-03 13:53N 55°29' E 008°25'0 0.0
2017-Jul-03 13:29N 55°29' E 008°25'0 0.0
2017-Jul-03 12:59N 55°29' E 008°25'0 0.0
2017-Jul-03 12:29N 55°29' E 008°25'0 0.0
2017-Jul-03 11:59N 55°29' E 008°25'0 0.0
2017-Jul-03 11:29N 55°29' E 008°25'0 0.0
2017-Jul-03 10:59N 55°29' E 008°25'0 0.0
2017-Jul-03 10:29N 55°29' E 008°25'0 0.0
2017-Jul-03 09:59N 55°29' E 008°25'0 0.0
2017-Jul-03 09:26N 55°29' E 008°25'0 0.0
2017-Jul-03 08:59N 55°29' E 008°25'0 0.0
2017-Jul-03 08:29N 55°29' E 008°25'0 0.0
2017-Jul-03 07:47N 55°29' E 008°25'0 0.0
2017-Jul-03 07:29N 55°29' E 008°25'0 0.0
2017-Jul-03 06:56N 55°29' E 008°25'0 0.0
2017-Jul-03 06:29N 55°29' E 008°25'0 0.0
2017-Jul-03 05:59N 55°29' E 008°25'0 0.0
2017-Jul-03 05:29N 55°29' E 008°25'0 0.0
2017-Jul-03 04:59N 55°29' E 008°25'0 0.0
2017-Jul-03 04:29N 55°29' E 008°25'0 0.0
2017-Jul-03 03:56N 55°29' E 008°25'0 0.0
2017-Jul-03 03:29N 55°29' E 008°25'0 0.0
2017-Jul-03 02:53N 55°29' E 008°25'0 0.0
2017-Jul-03 02:26N 55°29' E 008°25'0 0.0
2017-Jul-03 01:56N 55°29' E 008°25'0 0.0
2017-Jul-03 01:29N 55°29' E 008°25'0 0.0
2017-Jul-03 00:59N 55°29' E 008°25'0 0.0
2017-Jul-03 00:29N 55°29' E 008°25'0 0.0
2017-Jul-02 23:56N 55°29' E 008°25'0 0.0
2017-Jul-02 23:26N 55°29' E 008°25'0 0.0
2017-Jul-02 22:56N 55°29' E 008°25'0 0.0
2017-Jul-02 22:29N 55°29' E 008°25'0 0.0
2017-Jul-02 21:59N 55°29' E 008°25'0 0.0
2017-Jul-02 21:26N 55°29' E 008°25'0 0.0
2017-Jul-02 20:56N 55°29' E 008°25'0 0.0
2017-Jul-02 20:29N 55°29' E 008°25'0 0.0
2017-Jul-02 19:59N 55°29' E 008°25'0 0.0
2017-Jul-02 19:26N 55°29' E 008°25'0 0.0
2017-Jul-02 18:53N 55°29' E 008°25'0 0.0
2017-Jul-02 18:29N 55°29' E 008°25'0 0.0
2017-Jul-02 17:50N 55°29' E 008°25'0 0.0
2017-Jul-02 17:29N 55°29' E 008°25'0 0.0
2017-Jul-02 16:56N 55°29' E 008°25'0 0.0
2017-Jul-02 16:29N 55°29' E 008°25'0 0.0
2017-Jul-02 15:59N 55°29' E 008°25'0 0.0
2017-Jul-02 15:29N 55°29' E 008°25'0 0.0
2017-Jul-02 14:50N 55°29' E 008°25'0 0.0
2017-Jul-02 13:59N 55°29' E 008°25'0 0.0
2017-Jul-02 13:29N 55°29' E 008°25'0 0.0
2017-Jul-02 12:56N 55°29' E 008°25'0 0.0
2017-Jul-02 12:26N 55°29' E 008°25'0 0.0
2017-Jul-02 11:56N 55°29' E 008°25'0 0.0
2017-Jul-02 11:23N 55°29' E 008°25'0 0.0
2017-Jul-02 10:56N 55°29' E 008°25'0 0.0
2017-Jul-02 10:29N 55°29' E 008°25'0 0.0
2017-Jul-02 09:59N 55°29' E 008°25'0 0.0
2017-Jul-02 09:29N 55°29' E 008°25'0 0.0
2017-Jul-02 08:59N 55°29' E 008°25'  
Track history (hours):
 
Tides and Currents Weather Stations Pressure Air Temp Water Temp Dewpoint Dewpoint Depression Visibility Wind Speed Wind Dir Waves Ship Positions

Danmark (Denmark)

Last reported at 2017-Jul-12 08:48 UTC. Time now 2017-Aug-20 11:30 UTC.
Position N 57°26' E 010°32'.
Warning: this ship's position is 39 days out of date.

Length 60 m; beam 10 m; draft 5 m.

Type: Sailing vessel. MMSI: 219500000.

Date/timePositionNaut miles runAvg speedWind from/ knotsBaromVisibWave heightAir tempDewpointWater temp
2017-Jul-12 08:48N 57°26' E 010°32'0 0.0
2017-Jul-12 08:30N 57°26' E 010°32'0 0.0
2017-Jul-12 08:00N 57°26' E 010°32'0 0.0
2017-Jul-12 07:30N 57°26' E 010°32'0 0.1
2017-Jul-12 07:00N 57°26' E 010°32'1 1.9
2017-Jul-12 06:29N 57°25' E 010°34'1 2.5
2017-Jul-12 06:00N 57°25' E 010°36'2 3.4
2017-Jul-12 05:30N 57°26' E 010°37'2 3.2
2017-Jul-12 04:59N 57°28' E 010°39'2 4.1
2017-Jul-12 04:30N 57°30' E 010°40'2 3.1
2017-Jul-12 04:00N 57°31' E 010°41'2 4.0
2017-Jul-12 03:30N 57°33' E 010°42'2 4.0
2017-Jul-12 02:59N 57°35' E 010°43'2 4.4
2017-Jul-12 02:30N 57°37' E 010°44'2 4.1
2017-Jul-12 01:58N 57°39' E 010°45'2 4.0
2017-Jul-12 01:30N 57°41' E 010°46'2 4.5
2017-Jul-12 01:00N 57°43' E 010°45'3 4.9
2017-Jul-12 00:27N 57°46' E 010°44'2 5.0
2017-Jul-12 00:00N 57°47' E 010°40'3 6.6
2017-Jul-11 23:30N 57°47' E 010°34'3 6.3
2017-Jul-11 23:00N 57°45' E 010°29'3 6.1
2017-Jul-11 22:30N 57°44' E 010°24'3 5.9
2017-Jul-11 21:57N 57°43' E 010°18'127 6.0
2017-Jul-11 00:52N 56°04' E 007°52'2 6.4
2017-Jul-11 00:31N 56°02' E 007°52'3 6.5
2017-Jul-11 00:01N 55°59' E 007°52'3 6.5
2017-Jul-10 23:31N 55°55' E 007°52'3 6.4
2017-Jul-10 23:00N 55°52' E 007°51'3 6.1
2017-Jul-10 22:30N 55°49' E 007°51'3 6.1
2017-Jul-10 22:00N 55°46' E 007°50'3 5.9
2017-Jul-10 21:30N 55°43' E 007°50'3 5.7
2017-Jul-10 21:00N 55°40' E 007°50'3 5.9
2017-Jul-10 20:30N 55°37' E 007°49'3 5.8
2017-Jul-10 20:00N 55°34' E 007°49'3 5.4
2017-Jul-10 19:30N 55°32' E 007°51'3 6.2
2017-Jul-10 19:00N 55°31' E 007°56'3 6.1
2017-Jul-10 18:30N 55°30' E 008°02'3 5.9
2017-Jul-10 18:00N 55°28' E 008°06'3 5.7
2017-Jul-10 17:30N 55°27' E 008°10'3 5.4
2017-Jul-10 17:00N 55°26' E 008°14'5 9.3
2017-Jul-10 16:30N 55°29' E 008°21'3 4.1
2017-Jul-10 15:54N 55°29' E 008°25'0 0.0
2017-Jul-10 15:30N 55°29' E 008°25'0 0.0
2017-Jul-10 15:00N 55°29' E 008°25'0 0.0
2017-Jul-10 14:30N 55°29' E 008°25'0 0.0
2017-Jul-10 14:00N 55°29' E 008°25'0 0.0
2017-Jul-10 13:30N 55°29' E 008°25'0 0.0
2017-Jul-10 13:00N 55°29' E 008°25'0 0.0
2017-Jul-10 12:30N 55°29' E 008°25'0 0.0
2017-Jul-10 12:00N 55°29' E 008°25'0 0.0
2017-Jul-10 11:30N 55°29' E 008°25'0 0.0
2017-Jul-10 11:00N 55°29' E 008°25'0 0.0
2017-Jul-10 10:24N 55°29' E 008°25'0 0.0
2017-Jul-10 10:00N 55°29' E 008°25'0 0.0
2017-Jul-10 09:30N 55°29' E 008°25'0 0.0
2017-Jul-10 09:00N 55°29' E 008°25'0 0.0
2017-Jul-10 08:30N 55°29' E 008°25'0 0.0
2017-Jul-10 07:54N 55°29' E 008°25'0 0.0
2017-Jul-10 07:30N 55°29' E 008°25'0 0.0
2017-Jul-10 06:36N 55°29' E 008°25'0 0.1
2017-Jul-10 06:30N 55°29' E 008°25'0 0.0
2017-Jul-10 05:54N 55°29' E 008°25'0 0.0
2017-Jul-10 05:30N 55°29' E 008°25'0 0.0
2017-Jul-10 05:00N 55°29' E 008°25'0 0.0
2017-Jul-10 04:30N 55°29' E 008°25'0 0.0
2017-Jul-10 03:54N 55°29' E 008°25'0 0.0
2017-Jul-10 03:30N 55°29' E 008°25'0 0.0
2017-Jul-10 03:00N 55°29' E 008°25'0 0.0
2017-Jul-10 02:30N 55°29' E 008°25'0 0.0
2017-Jul-10 01:50N 55°29' E 008°25'0 0.0
2017-Jul-10 01:26N 55°29' E 008°25'0 0.0
2017-Jul-10 00:56N 55°29' E 008°25'0 0.0
2017-Jul-10 00:26N 55°29' E 008°25'0 0.0
2017-Jul-09 23:50N 55°29' E 008°25'0 0.0
2017-Jul-09 23:26N 55°29' E 008°25'0 0.0
2017-Jul-09 22:56N 55°29' E 008°25'0 0.0
2017-Jul-09 22:26N 55°29' E 008°25'0 0.0
2017-Jul-09 21:56N 55°29' E 008°25'0 0.0
2017-Jul-09 21:26N 55°29' E 008°25'0 0.0
2017-Jul-09 20:56N 55°29' E 008°25'0 0.0
2017-Jul-09 20:26N 55°29' E 008°25'0 0.0
2017-Jul-09 19:56N 55°29' E 008°25'0 0.0
2017-Jul-09 19:26N 55°29' E 008°25'0 0.0
2017-Jul-09 18:56N 55°29' E 008°25'0 0.0
2017-Jul-09 18:26N 55°29' E 008°25'0 0.0
2017-Jul-09 17:50N 55°29' E 008°25'0 0.0
2017-Jul-09 17:26N 55°29' E 008°25'0 0.0
2017-Jul-09 16:56N 55°29' E 008°25'0 0.0
2017-Jul-09 16:26N 55°29' E 008°25'0 0.0
2017-Jul-09 15:56N 55°29' E 008°25'0 0.0
2017-Jul-09 15:26N 55°29' E 008°25'0 0.0
2017-Jul-09 14:56N 55°29' E 008°25'0 0.0
2017-Jul-09 14:26N 55°29' E 008°25'0 0.0
2017-Jul-09 13:50N 55°29' E 008°25'0 0.0
2017-Jul-09 13:20N 55°29' E 008°25'0 0.0
2017-Jul-09 12:56N 55°29' E 008°25'0 0.0
2017-Jul-09 12:26N 55°29' E 008°25'0 0.0
2017-Jul-09 11:50N 55°29' E 008°25'0 0.0
2017-Jul-09 11:26N 55°29' E 008°25'0 0.0
2017-Jul-09 10:56N 55°29' E 008°25'0 0.0
2017-Jul-09 10:26N 55°29' E 008°25'0 0.0
2017-Jul-09 09:50N 55°29' E 008°25'0 0.0
2017-Jul-09 09:26N 55°29' E 008°25'0 0.0
2017-Jul-09 08:56N 55°29' E 008°25'0 0.0
2017-Jul-09 08:20N 55°29' E 008°25'0 0.0
2017-Jul-09 07:44N 55°29' E 008°25'0 0.0
2017-Jul-09 07:26N 55°29' E 008°25'0 0.0
2017-Jul-09 06:56N 55°29' E 008°25'0 0.0
2017-Jul-09 06:26N 55°29' E 008°25'0 0.0
2017-Jul-09 05:56N 55°29' E 008°25'0 0.0
2017-Jul-09 05:26N 55°29' E 008°25'0 0.0
2017-Jul-09 04:56N 55°29' E 008°25'0 0.0
2017-Jul-09 04:26N 55°29' E 008°25'0 0.0
2017-Jul-09 03:56N 55°29' E 008°25'0 0.0
2017-Jul-09 03:26N 55°29' E 008°25'0 0.0
2017-Jul-09 02:56N 55°29' E 008°25'0 0.0
2017-Jul-09 02:26N 55°29' E 008°25'0 0.0
2017-Jul-09 01:44N 55°29' E 008°25'0 0.0
2017-Jul-09 01:20N 55°29' E 008°25'0 0.0
2017-Jul-09 00:56N 55°29' E 008°25'0 0.0
2017-Jul-09 00:26N 55°29' E 008°25'0 0.0
2017-Jul-08 23:56N 55°29' E 008°25'0 0.0
2017-Jul-08 23:26N 55°29' E 008°25'0 0.0
2017-Jul-08 22:56N 55°29' E 008°25'0 0.0
2017-Jul-08 22:26N 55°29' E 008°25'0 0.0
2017-Jul-08 21:56N 55°29' E 008°25'0 0.0
2017-Jul-08 21:26N 55°29' E 008°25'0 0.0
2017-Jul-08 20:56N 55°29' E 008°25'0 0.0
2017-Jul-08 20:26N 55°29' E 008°25'0 0.0
2017-Jul-08 19:56N 55°29' E 008°25'0 0.0
2017-Jul-08 19:26N 55°29' E 008°25'0 0.0
2017-Jul-08 18:56N 55°29' E 008°25'0 0.0
2017-Jul-08 18:26N 55°29' E 008°25'0 0.0
2017-Jul-08 17:56N 55°29' E 008°25'0 0.0
2017-Jul-08 17:26N 55°29' E 008°25'0 0.0
2017-Jul-08 16:56N 55°29' E 008°25'0 0.0
2017-Jul-08 16:26N 55°29' E 008°25'0 0.0
2017-Jul-08 15:56N 55°29' E 008°25'0 0.0
2017-Jul-08 15:20N 55°29' E 008°25'0 0.0
2017-Jul-08 14:56N 55°29' E 008°25'0 0.0
2017-Jul-08 13:56N 55°29' E 008°25'0 0.0
2017-Jul-08 13:20N 55°29' E 008°25'0 0.0
2017-Jul-08 12:56N 55°29' E 008°25'0 0.0
2017-Jul-08 12:20N 55°29' E 008°25'0 0.0
2017-Jul-08 11:56N 55°29' E 008°25'0 0.0
2017-Jul-08 11:26N 55°29' E 008°25'0 0.0
2017-Jul-08 10:56N 55°29' E 008°25'0 0.0
2017-Jul-08 10:26N 55°29' E 008°25'0 0.0
2017-Jul-08 09:50N 55°29' E 008°25'0 0.0
2017-Jul-08 09:26N 55°29' E 008°25'0 0.0
2017-Jul-08 08:50N 55°29' E 008°25'0 0.0
2017-Jul-08 08:26N 55°29' E 008°25'0 0.0
2017-Jul-08 07:50N 55°29' E 008°25'0 0.0
2017-Jul-08 07:26N 55°29' E 008°25'0 0.0
2017-Jul-08 06:50N 55°29' E 008°25'0 0.0
2017-Jul-08 06:26N 55°29' E 008°25'0 0.0
2017-Jul-08 05:56N 55°29' E 008°25'0 0.0
2017-Jul-08 05:20N 55°29' E 008°25'0 0.0
2017-Jul-08 04:56N 55°29' E 008°25'0 0.0
2017-Jul-08 04:26N 55°29' E 008°25'0 0.0
2017-Jul-08 03:56N 55°29' E 008°25'0 0.0
2017-Jul-08 03:26N 55°29' E 008°25'0 0.0
2017-Jul-08 02:56N 55°29' E 008°25'0 0.0
2017-Jul-08 02:26N 55°29' E 008°25'0 0.0
2017-Jul-08 01:56N 55°29' E 008°25'0 0.0
2017-Jul-08 01:20N 55°29' E 008°25'0 0.0
2017-Jul-08 00:50N 55°29' E 008°25'0 0.0
2017-Jul-08 00:26N 55°29' E 008°25'0 0.0
2017-Jul-07 23:56N 55°29' E 008°25'0 0.0
2017-Jul-07 23:26N 55°29' E 008°25'0 0.0
2017-Jul-07 22:56N 55°29' E 008°25'0 0.0
2017-Jul-07 22:26N 55°29' E 008°25'0 0.0
2017-Jul-07 21:56N 55°29' E 008°25'0 0.0
2017-Jul-07 21:26N 55°29' E 008°25'0 0.0
2017-Jul-07 20:56N 55°29' E 008°25'0 0.0
2017-Jul-07 20:26N 55°29' E 008°25'0 0.0
2017-Jul-07 19:56N 55°29' E 008°25'0 0.0
2017-Jul-07 19:26N 55°29' E 008°25'0 0.0
2017-Jul-07 18:44N 55°29' E 008°25'0 0.0
2017-Jul-07 18:26N 55°29' E 008°25'0 0.0
2017-Jul-07 17:56N 55°29' E 008°25'0 0.0
2017-Jul-07 17:26N 55°29' E 008°25'0 0.0
2017-Jul-07 16:56N 55°29' E 008°25'0 0.0
2017-Jul-07 16:26N 55°29' E 008°25'0 0.0
2017-Jul-07 15:56N 55°29' E 008°25'0 0.0
2017-Jul-07 15:26N 55°29' E 008°25'0 0.0
2017-Jul-07 14:56N 55°29' E 008°25'0 0.0
2017-Jul-07 13:56N 55°29' E 008°25'0 0.0
2017-Jul-07 13:26N 55°29' E 008°25'0 0.0
2017-Jul-07 12:56N 55°29' E 008°25'0 0.0
2017-Jul-07 12:26N 55°29' E 008°25'0 0.0
2017-Jul-07 11:56N 55°29' E 008°25'0 0.0
2017-Jul-07 11:26N 55°29' E 008°25'0 0.0
2017-Jul-07 10:50N 55°29' E 008°25'0 0.0
2017-Jul-07 10:27N 55°29' E 008°25'0 0.0
2017-Jul-07 09:50N 55°29' E 008°25'0 0.0
2017-Jul-07 09:17N 55°29' E 008°25'0 0.0
2017-Jul-07 08:59N 55°29' E 008°25'0 0.0
2017-Jul-07 08:29N 55°29' E 008°25'0 0.0
2017-Jul-07 07:59N 55°29' E 008°25'0 0.0
2017-Jul-07 07:29N 55°29' E 008°25'0 0.0
2017-Jul-07 06:56N 55°29' E 008°25'0 0.0
2017-Jul-07 06:26N 55°29' E 008°25'0 0.0
2017-Jul-07 05:59N 55°29' E 008°25'0 0.0
2017-Jul-07 05:26N 55°29' E 008°25'0 0.0
2017-Jul-07 04:56N 55°29' E 008°25'0 0.0
2017-Jul-07 04:17N 55°29' E 008°25'0 0.0
2017-Jul-07 03:59N 55°29' E 008°25'0 0.0
2017-Jul-07 03:23N 55°29' E 008°25'0 0.0
2017-Jul-07 02:56N 55°29' E 008°25'0 0.0
2017-Jul-07 02:29N 55°29' E 008°25'0 0.0
2017-Jul-07 01:59N 55°29' E 008°25'0 0.0
2017-Jul-07 01:29N 55°29' E 008°25'0 0.0
2017-Jul-07 00:59N 55°29' E 008°25'0 0.0
2017-Jul-07 00:29N 55°29' E 008°25'0 0.0
2017-Jul-06 23:59N 55°29' E 008°25'0 0.0
2017-Jul-06 23:17N 55°29' E 008°25'0 0.0
2017-Jul-06 23:14N 55°29' E 008°25'0 0.0
2017-Jul-05 08:28N 55°29' E 008°25'0 0.0
2017-Jul-05 07:56N 55°29' E 008°25'0 0.0
2017-Jul-05 07:29N 55°29' E 008°25'0 0.0
2017-Jul-05 06:59N 55°29' E 008°25'0 0.0
2017-Jul-05 06:20N 55°29' E 008°25'0 0.0
2017-Jul-05 05:59N 55°29' E 008°25'0 0.0
2017-Jul-05 05:29N 55°29' E 008°25'0 0.0
2017-Jul-05 04:59N 55°29' E 008°25'0 0.0
2017-Jul-05 04:29N 55°29' E 008°25'0 0.0
2017-Jul-05 03:59N 55°29' E 008°25'0 0.0
2017-Jul-05 03:29N 55°29' E 008°25'0 0.0
2017-Jul-05 02:56N 55°29' E 008°25'0 0.0
2017-Jul-05 02:29N 55°29' E 008°25'0 0.0
2017-Jul-05 01:59N 55°29' E 008°25'0 0.0
2017-Jul-05 01:29N 55°29' E 008°25'0 0.0
2017-Jul-05 00:59N 55°29' E 008°25'0 0.0
2017-Jul-05 00:29N 55°29' E 008°25'0 0.0
2017-Jul-04 23:59N 55°29' E 008°25'0 0.0
2017-Jul-04 23:29N 55°29' E 008°25'0 0.0
2017-Jul-04 22:44N 55°29' E 008°25'0 0.0
2017-Jul-04 22:26N 55°29' E 008°25'0 0.0
2017-Jul-04 21:50N 55°29' E 008°25'0 0.0
2017-Jul-04 21:29N 55°29' E 008°25'0 0.0
2017-Jul-04 20:59N 55°29' E 008°25'0 0.0
2017-Jul-04 20:23N 55°29' E 008°25'0 0.0
2017-Jul-04 19:59N 55°29' E 008°25'0 0.0
2017-Jul-04 19:26N 55°29' E 008°25'0 0.0
2017-Jul-04 18:59N 55°29' E 008°25'0 0.0
2017-Jul-04 18:29N 55°29' E 008°25'0 0.0
2017-Jul-04 17:53N 55°29' E 008°25'0 0.0
2017-Jul-04 17:29N 55°29' E 008°25'0 0.0
2017-Jul-04 16:59N 55°29' E 008°25'0 0.0
2017-Jul-04 16:29N 55°29' E 008°25'0 0.0
2017-Jul-04 15:59N 55°29' E 008°25'0 0.0
2017-Jul-04 15:29N 55°29' E 008°25'0 0.0
2017-Jul-04 14:53N 55°29' E 008°25'0 0.0
2017-Jul-04 13:59N 55°29' E 008°25'0 0.0
2017-Jul-04 13:29N 55°29' E 008°25'0 0.0
2017-Jul-04 12:59N 55°29' E 008°25'0 0.0
2017-Jul-04 12:23N 55°29' E 008°25'0 0.0
2017-Jul-04 11:59N 55°29' E 008°25'0 0.0
2017-Jul-04 11:26N 55°29' E 008°25'0 0.0
2017-Jul-04 10:53N 55°29' E 008°25'0 0.0
2017-Jul-04 10:29N 55°29' E 008°25'0 0.0
2017-Jul-04 09:59N 55°29' E 008°25'0 0.0
2017-Jul-04 09:29N 55°29' E 008°25'0 0.0
2017-Jul-04 08:56N 55°29' E 008°25'0 0.0
2017-Jul-04 08:29N 55°29' E 008°25'0 0.0
2017-Jul-04 07:56N 55°29' E 008°25'0 0.0
2017-Jul-04 07:29N 55°29' E 008°25'0 0.0
2017-Jul-04 06:53N 55°29' E 008°25'0 0.0
2017-Jul-04 06:29N 55°29' E 008°25'0 0.0
2017-Jul-04 05:56N 55°29' E 008°25'0 0.0
2017-Jul-04 05:23N 55°29' E 008°25'0 0.0
2017-Jul-04 04:56N 55°29' E 008°25'0 0.0
2017-Jul-04 04:29N 55°29' E 008°25'0 0.0
2017-Jul-04 03:56N 55°29' E 008°25'0 0.0
2017-Jul-04 03:29N 55°29' E 008°25'0 0.0
2017-Jul-04 02:53N 55°29' E 008°25'0 0.0
2017-Jul-04 02:26N 55°29' E 008°25'0 0.0
2017-Jul-04 01:59N 55°29' E 008°25'0 0.1
2017-Jul-04 01:29N 55°29' E 008°25'0 0.0
2017-Jul-04 00:53N 55°29' E 008°25'0 0.0
2017-Jul-04 00:29N 55°29' E 008°25'0 0.0
2017-Jul-03 23:59N 55°29' E 008°25'0 0.0
2017-Jul-03 23:29N 55°29' E 008°25'0 0.0
2017-Jul-03 22:56N 55°29' E 008°25'0 0.0
2017-Jul-03 22:29N 55°29' E 008°25'0 0.0
2017-Jul-03 21:59N 55°29' E 008°25'0 0.0
2017-Jul-03 21:29N 55°29' E 008°25'0 0.0
2017-Jul-03 20:59N 55°29' E 008°25'0 0.0
2017-Jul-03 20:26N 55°29' E 008°25'0 0.0
2017-Jul-03 19:59N 55°29' E 008°25'0 0.0
2017-Jul-03 19:23N 55°29' E 008°25'0 0.0
2017-Jul-03 18:50N 55°29' E 008°25'0 0.0
2017-Jul-03 18:29N 55°29' E 008°25'0 0.0
2017-Jul-03 17:56N 55°29' E 008°25'0 0.0
2017-Jul-03 17:26N 55°29' E 008°25'0 0.0
2017-Jul-03 16:59N 55°29' E 008°25'0 0.0
2017-Jul-03 16:29N 55°29' E 008°25'0 0.0
2017-Jul-03 15:59N 55°29' E 008°25'0 0.0
2017-Jul-03 15:26N 55°29' E 008°25'0 0.0
2017-Jul-03 14:53N 55°29' E 008°25'0 0.0
2017-Jul-03 13:53N 55°29' E 008°25'0 0.0
2017-Jul-03 13:29N 55°29' E 008°25'0 0.0
2017-Jul-03 12:59N 55°29' E 008°25'0 0.0
2017-Jul-03 12:29N 55°29' E 008°25'0 0.0
2017-Jul-03 11:59N 55°29' E 008°25'0 0.0
2017-Jul-03 11:29N 55°29' E 008°25'0 0.0
2017-Jul-03 10:59N 55°29' E 008°25'0 0.0
2017-Jul-03 10:29N 55°29' E 008°25'0 0.0
2017-Jul-03 09:59N 55°29' E 008°25'0 0.0
2017-Jul-03 09:26N 55°29' E 008°25'0 0.0
2017-Jul-03 08:59N 55°29' E 008°25'0 0.0
2017-Jul-03 08:29N 55°29' E 008°25'0 0.0
2017-Jul-03 07:47N 55°29' E 008°25'0 0.0
2017-Jul-03 07:29N 55°29' E 008°25'0 0.0
2017-Jul-03 06:56N 55°29' E 008°25'0 0.0
2017-Jul-03 06:29N 55°29' E 008°25'0 0.0
2017-Jul-03 05:59N 55°29' E 008°25'0 0.0
2017-Jul-03 05:29N 55°29' E 008°25'0 0.0
2017-Jul-03 04:59N 55°29' E 008°25'0 0.0
2017-Jul-03 04:29N 55°29' E 008°25'0 0.0
2017-Jul-03 03:56N 55°29' E 008°25'0 0.0
2017-Jul-03 03:29N 55°29' E 008°25'0 0.0
2017-Jul-03 02:53N 55°29' E 008°25'0 0.0
2017-Jul-03 02:26N 55°29' E 008°25'0 0.0
2017-Jul-03 01:56N 55°29' E 008°25'0 0.0
2017-Jul-03 01:29N 55°29' E 008°25'0 0.0
2017-Jul-03 00:59N 55°29' E 008°25'0 0.0
2017-Jul-03 00:29N 55°29' E 008°25'0 0.0
2017-Jul-02 23:56N 55°29' E 008°25'0 0.0
2017-Jul-02 23:26N 55°29' E 008°25'0 0.0
2017-Jul-02 22:56N 55°29' E 008°25'0 0.0
2017-Jul-02 22:29N 55°29' E 008°25'0 0.0
2017-Jul-02 21:59N 55°29' E 008°25'0 0.0
2017-Jul-02 21:26N 55°29' E 008°25'0 0.0
2017-Jul-02 20:56N 55°29' E 008°25'0 0.0
2017-Jul-02 20:29N 55°29' E 008°25'0 0.0
2017-Jul-02 19:59N 55°29' E 008°25'0 0.0
2017-Jul-02 19:26N 55°29' E 008°25'0 0.0
2017-Jul-02 18:53N 55°29' E 008°25'0 0.0
2017-Jul-02 18:29N 55°29' E 008°25'0 0.0
2017-Jul-02 17:50N 55°29' E 008°25'0 0.0
2017-Jul-02 17:29N 55°29' E 008°25'0 0.0
2017-Jul-02 16:56N 55°29' E 008°25'0 0.0
2017-Jul-02 16:29N 55°29' E 008°25'0 0.0
2017-Jul-02 15:59N 55°29' E 008°25'0 0.0
2017-Jul-02 15:29N 55°29' E 008°25'0 0.0
2017-Jul-02 14:50N 55°29' E 008°25'0 0.0
2017-Jul-02 13:59N 55°29' E 008°25'0 0.0
2017-Jul-02 13:29N 55°29' E 008°25'0 0.0
2017-Jul-02 12:56N 55°29' E 008°25'0 0.0
2017-Jul-02 12:26N 55°29' E 008°25'0 0.0
2017-Jul-02 11:56N 55°29' E 008°25'0 0.0
2017-Jul-02 11:23N 55°29' E 008°25'0 0.0
2017-Jul-02 10:56N 55°29' E 008°25'0 0.0
2017-Jul-02 10:29N 55°29' E 008°25'0 0.0
2017-Jul-02 09:59N 55°29' E 008°25'0 0.0
2017-Jul-02 09:29N 55°29' E 008°25'0 0.0
2017-Jul-02 08:59N 55°29' E 008°25'  

Dump ship's entire track history